Time;durP1;ratioP1;P1;durP2;ratioP2;P2;SDS_P1;SDS_P2;PMS_P1;PMS_P2;Temp;Humidity;BMP_temperature;BMP_pressure;BME280_temperature;BME280_humidity;BME280_pressure;Samples;Min_cycle;Max_cycle;Signal;HPM_P1;HPM_P2
2023/06/21 00:00:32;;;;;;;92.72;83.72;;;;;;;16.17;100.00;101140.53;6096435;23;20369;-81
2023/06/21 00:03:01;;;;;;;91.40;83.30;;;;;;;16.24;100.00;101130.50;6095725;23;20025;-82
2023/06/21 00:05:34;;;;;;;88.28;80.15;;;;;;;16.24;100.00;101135.88;6096136;23;20520;-81
2023/06/21 00:08:07;;;;;;;88.55;80.25;;;;;;;16.36;100.00;101135.88;6095640;23;20034;-81
2023/06/21 00:10:35;;;;;;;100.70;91.80;;;;;;;16.05;100.00;101130.88;6095386;23;20042;-81
2023/06/21 00:13:02;;;;;;;88.70;80.53;;;;;;;16.26;100.00;101133.78;6094965;23;20123;-81
2023/06/21 00:15:49;;;;;;;89.47;81.43;;;;;;;16.56;100.00;101140.88;6095856;23;20023;-84
2023/06/21 00:18:16;;;;;;;83.13;75.35;;;;;;;16.47;100.00;101136.94;6096277;23;20405;-84
2023/06/21 00:20:46;;;;;;;84.03;76.38;;;;;;;16.33;100.00;101133.66;6095156;23;20026;-81
2023/06/21 00:23:14;;;;;;;97.65;89.00;;;;;;;16.02;100.00;101137.50;6095241;23;20077;-81
2023/06/21 00:25:41;;;;;;;91.55;82.93;;;;;;;16.20;100.00;101140.09;6095682;23;20019;-81
2023/06/21 00:28:08;;;;;;;92.70;83.88;;;;;;;16.23;100.00;101136.94;6095240;23;20018;-81
2023/06/21 00:30:35;;;;;;;95.43;86.85;;;;;;;16.29;100.00;101143.22;6095180;23;20101;-82
2023/06/21 00:33:02;;;;;;;96.78;87.60;;;;;;;16.20;100.00;101148.13;6095074;23;20022;-81
2023/06/21 00:35:29;;;;;;;96.50;87.75;;;;;;;16.25;100.00;101145.56;6095127;23;20062;-80
2023/06/21 00:37:57;;;;;;;100.50;91.22;;;;;;;16.32;100.00;101142.75;6095345;23;20019;-81
2023/06/21 00:40:27;;;;;;;89.20;80.95;;;;;;;16.31;100.00;101142.97;6095897;23;20024;-81
2023/06/21 00:42:55;;;;;;;90.15;82.05;;;;;;;16.42;100.00;101137.63;6095134;23;20472;-81
2023/06/21 00:45:22;;;;;;;83.68;75.72;;;;;;;16.27;100.00;101142.63;6095524;23;20097;-80
2023/06/21 00:47:49;;;;;;;82.10;74.22;;;;;;;16.09;100.00;101127.50;6095641;23;20023;-81
2023/06/21 00:50:17;;;;;;;90.25;81.65;;;;;;;16.15;100.00;101141.81;6095464;23;20022;-81
2023/06/21 00:52:44;;;;;;;85.60;77.30;;;;;;;16.15;100.00;101141.81;6094987;23;20018;-81
2023/06/21 00:55:13;;;;;;;88.90;80.50;;;;;;;15.79;100.00;101141.81;6093092;23;20118;-81
2023/06/21 00:57:44;;;;;;;84.43;76.40;;;;;;;15.93;100.00;101131.66;6095442;23;20022;-81
2023/06/21 01:00:19;;;;;;;84.78;76.55;;;;;;;15.86;100.00;101146.25;6095124;23;20447;-81
2023/06/21 01:02:47;;;;;;;88.72;80.18;;;;;;;15.81;100.00;101141.56;6095013;23;20038;-81
2023/06/21 01:05:17;;;;;;;88.10;79.78;;;;;;;16.10;100.00;101136.38;6094668;23;20077;-81
2023/06/21 01:07:52;;;;;;;88.70;80.70;;;;;;;16.10;100.00;101137.19;6094890;23;20027;-81
2023/06/21 01:10:31;;;;;;;91.53;83.43;;;;;;;16.18;100.00;101147.53;6094765;23;20026;-81
2023/06/21 01:13:13;;;;;;;91.82;83.18;;;;;;;16.00;100.00;101128.88;6094821;23;20368;-82
2023/06/21 01:15:43;;;;;;;88.60;80.30;;;;;;;16.07;100.00;101145.69;6095312;23;20023;-81
2023/06/21 01:18:14;;;;;;;95.53;87.03;;;;;;;15.87;100.00;101143.31;6094709;23;20018;-81
2023/06/21 01:20:53;;;;;;;98.85;89.93;;;;;;;15.92;100.00;101145.31;6094812;23;20024;-81
2023/06/21 01:23:50;;;;;;;94.25;85.20;;;;;;;15.86;100.00;101146.25;6095304;23;20376;-81
2023/06/21 01:26:32;;;;;;;98.13;88.95;;;;;;;16.13;100.00;101138.59;6094704;23;20030;-81
2023/06/21 01:29:13;;;;;;;88.45;80.10;;;;;;;16.14;100.00;101146.38;6095098;23;20018;-81
2023/06/21 01:31:42;;;;;;;85.97;77.82;;;;;;;16.11;100.00;101135.31;6095155;23;20018;-83
2023/06/21 01:34:10;;;;;;;92.38;83.78;;;;;;;15.88;100.00;101152.97;6095010;23;20101;-81
2023/06/21 01:36:42;;;;;;;94.35;85.65;;;;;;;16.05;100.00;101141.59;6095196;23;20026;-84
2023/06/21 01:39:09;;;;;;;92.30;83.55;;;;;;;16.08;100.00;101149.97;6096061;23;20026;-84
2023/06/21 01:41:36;;;;;;;87.85;79.38;;;;;;;15.95;100.00;101156.38;6095283;23;20018;-81
2023/06/21 01:44:04;;;;;;;94.68;85.65;;;;;;;16.12;100.00;101161.84;6095071;23;20026;-81
2023/06/21 01:46:32;;;;;;;84.97;77.05;;;;;;;16.10;100.00;101155.13;6095053;23;20023;-84
2023/06/21 01:49:15;;;;;;;88.68;80.45;;;;;;;16.08;100.00;101166.06;6096075;23;20022;-81
2023/06/21 01:51:44;;;;;;;85.05;77.05;;;;;;;16.16;100.00;101171.09;6094679;23;20101;-81
2023/06/21 01:54:11;;;;;;;100.82;91.70;;;;;;;16.18;100.00;101177.00;6095151;23;20046;-84
2023/06/21 01:56:42;;;;;;;88.50;80.22;;;;;;;16.13;100.00;101166.19;6095161;23;20377;-84
2023/06/21 01:59:12;;;;;;;90.28;81.97;;;;;;;16.12;100.00;101175.25;6096321;23;20022;-84
2023/06/21 02:01:50;;;;;;;88.88;80.15;;;;;;;15.68;100.00;101173.91;6095508;23;20681;-84
2023/06/21 02:04:28;;;;;;;87.30;79.25;;;;;;;15.95;100.00;101172.44;6095553;23;20192;-84
2023/06/21 02:06:57;;;;;;;109.43;99.93;;;;;;;16.03;100.00;101182.81;6095085;23;20022;-84
2023/06/21 02:09:26;;;;;;;112.18;102.28;;;;;;;16.08;100.00;101167.91;6095384;23;20022;-84
2023/06/21 02:11:53;;;;;;;97.55;88.72;;;;;;;15.99;100.00;101175.47;6095215;23;20384;-84
2023/06/21 02:14:20;;;;;;;98.07;89.07;;;;;;;15.71;100.00;101168.91;6094030;23;20022;-81
2023/06/21 02:17:01;;;;;;;101.20;92.43;;;;;;;15.65;100.00;101177.81;6094526;23;20022;-80
2023/06/21 02:19:28;;;;;;;96.40;87.55;;;;;;;15.62;100.00;101169.44;6094100;23;20023;-80
2023/06/21 02:21:55;;;;;;;104.18;94.28;;;;;;;15.59;100.00;101173.38;6094073;23;20421;-81
2023/06/21 02:24:23;;;;;;;94.18;85.05;;;;;;;15.70;100.00;101178.00;6094289;23;20027;-81
2023/06/21 02:26:50;;;;;;;89.15;80.90;;;;;;;15.35;100.00;101180.50;6094309;23;20019;-83
2023/06/21 02:29:25;;;;;;;90.95;82.38;;;;;;;15.27;100.00;101183.47;6095333;23;20022;-84
2023/06/21 02:31:52;;;;;;;184.50;169.55;;;;;;;15.27;100.00;101186.16;6094989;23;20350;-84
2023/06/21 02:34:25;;;;;;;216.10;200.98;;;;;;;15.43;100.00;101187.38;6094838;23;20018;-83
2023/06/21 02:36:54;;;;;;;178.60;165.50;;;;;;;15.57;100.00;101196.88;6094738;23;20029;-84
2023/06/21 02:39:22;;;;;;;164.65;152.60;;;;;;;15.74;100.00;101197.91;6095345;23;20054;-84
2023/06/21 02:41:49;;;;;;;165.00;152.93;;;;;;;15.99;100.00;101196.91;6094566;23;20022;-84
2023/06/21 02:44:16;;;;;;;155.95;144.32;;;;;;;15.85;100.00;101200.81;6094806;23;20014;-83
2023/06/21 02:46:45;;;;;;;134.82;124.93;;;;;;;15.93;100.00;101200.50;6095522;23;20046;-84
2023/06/21 02:49:13;;;;;;;139.85;128.95;;;;;;;15.83;100.00;101202.94;6094570;23;20102;-84
2023/06/21 02:51:42;;;;;;;130.98;121.13;;;;;;;15.87;100.00;101204.91;6095161;23;20544;-84
2023/06/21 02:54:09;;;;;;;129.45;119.22;;;;;;;15.87;100.00;101196.88;6094910;23;20140;-81
2023/06/21 02:56:43;;;;;;;77.60;69.68;;;;;;;15.63;100.00;101198.63;6094206;23;20025;-81
2023/06/21 02:59:10;;;;;;;71.35;64.20;;;;;;;15.56;100.00;101190.69;6094442;23;20026;-81
2023/06/21 03:01:46;;;;;;;67.35;60.58;;;;;;;15.55;100.00;101198.94;6094827;23;20073;-84
2023/06/21 03:04:13;;;;;;;160.35;148.95;;;;;;;15.74;100.00;101197.09;6094760;23;20428;-84
2023/06/21 03:06:42;;;;;;;148.98;138.63;;;;;;;15.60;100.00;101192.94;6094766;23;20018;-84
2023/06/21 03:09:09;;;;;;;144.23;133.70;;;;;;;15.75;100.00;101202.19;6095343;23;20022;-84
2023/06/21 03:11:36;;;;;;;136.20;125.95;;;;;;;15.80;100.00;101194.31;6095124;23;20023;-84
2023/06/21 03:14:03;;;;;;;141.52;130.77;;;;;;;15.91;100.00;101195.38;6095520;23;20033;-84
2023/06/21 03:16:31;;;;;;;141.27;130.50;;;;;;;16.10;100.00;101206.03;6094209;23;20014;-81
2023/06/21 03:18:58;;;;;;;137.95;127.90;;;;;;;16.06;100.00;101207.50;6094427;23;20377;-85
2023/06/21 03:21:25;;;;;;;131.95;122.15;;;;;;;16.08;100.00;101211.59;6094221;23;20468;-85
2023/06/21 03:23:53;;;;;;;141.35;130.95;;;;;;;16.25;100.00;101209.88;6094802;23;20433;-81
2023/06/21 03:26:21;;;;;;;146.30;135.32;;;;;;;16.24;100.00;101210.09;6094190;23;20376;-81
2023/06/21 03:28:48;;;;;;;73.20;66.57;;;;;;;16.57;100.00;101212.22;6094327;23;20380;-85
2023/06/21 03:31:15;;;;;;;82.20;74.55;;;;;;;16.35;100.00;101220.03;6094727;23;20027;-85
2023/06/21 03:33:42;;;;;;;87.43;79.22;;;;;;;16.53;100.00;101213.75;6095160;23;20046;-84
2023/06/21 03:36:10;;;;;;;117.97;108.70;;;;;;;16.75;100.00;101211.28;6094878;23;20025;-84
2023/06/21 03:38:37;;;;;;;157.45;146.05;;;;;;;16.71;100.00;101202.88;6094763;23;20043;-85
2023/06/21 03:41:05;;;;;;;158.02;146.73;;;;;;;16.87;100.00;101204.06;6094824;23;20071;-84
2023/06/21 03:43:32;;;;;;;144.65;132.93;;;;;;;16.97;100.00;101206.13;6095105;23;20027;-85
2023/06/21 03:46:00;;;;;;;97.13;89.55;;;;;;;16.91;100.00;101210.59;6094901;23;20021;-84
2023/06/21 03:48:26;;;;;;;78.10;70.90;;;;;;;17.08;100.00;101210.69;6094959;23;20071;-85
2023/06/21 03:50:53;;;;;;;70.25;63.35;;;;;;;17.21;100.00;101222.19;6094570;23;20106;-85
2023/06/21 03:53:20;;;;;;;79.28;71.85;;;;;;;17.27;100.00;101218.56;6095077;23;20054;-84
2023/06/21 03:55:47;;;;;;;79.18;71.88;;;;;;;17.33;100.00;101213.03;6094307;23;20018;-85
2023/06/21 03:58:16;;;;;;;77.65;70.45;;;;;;;17.23;100.00;101206.69;6094466;23;20024;-85
2023/06/21 04:00:42;;;;;;;71.97;64.78;;;;;;;17.25;100.00;101220.69;6094830;23;20086;-84
2023/06/21 04:03:09;;;;;;;122.35;112.82;;;;;;;17.36;100.00;101220.63;6094620;23;20024;-84
2023/06/21 04:05:37;;;;;;;119.93;109.55;;;;;;;17.40;100.00;101210.25;6094376;23;20018;-84
2023/06/21 04:08:05;;;;;;;112.72;103.50;;;;;;;17.41;100.00;101211.88;6094507;23;20033;-85
2023/06/21 04:10:42;;;;;;;112.47;103.78;;;;;;;17.58;100.00;101210.06;6093862;23;20310;-80
2023/06/21 04:13:09;;;;;;;110.45;101.93;;;;;;;17.53;100.00;101211.81;6093530;23;20025;-81
2023/06/21 04:15:37;;;;;;;104.32;96.20;;;;;;;17.61;100.00;101209.56;6093718;23;20464;-81
2023/06/21 04:18:04;;;;;;;111.80;103.28;;;;;;;17.76;100.00;101210.88;6094745;23;20023;-81
2023/06/21 04:20:31;;;;;;;118.00;109.30;;;;;;;17.73;100.00;101208.69;6095337;23;20023;-81
2023/06/21 04:22:58;;;;;;;101.53;93.53;;;;;;;17.93;100.00;101213.63;6095316;23;20481;-81
2023/06/21 04:25:25;;;;;;;98.03;90.38;;;;;;;17.93;100.00;101221.69;6095491;23;20022;-80
2023/06/21 04:27:54;;;;;;;77.72;70.30;;;;;;;17.93;100.00;101216.31;6095570;23;20485;-81
2023/06/21 04:30:21;;;;;;;80.68;73.13;;;;;;;18.26;100.00;101221.72;6095067;23;20014;-81
2023/06/21 04:32:49;;;;;;;109.63;101.38;;;;;;;18.21;100.00;101229.69;6095328;23;20029;-81
2023/06/21 04:35:17;;;;;;;117.18;108.70;;;;;;;18.22;100.00;101228.66;6095429;23;20037;-81
2023/06/21 04:37:45;;;;;;;106.40;98.50;;;;;;;18.30;100.00;101225.53;6094906;23;20019;-81
2023/06/21 04:40:15;;;;;;;110.90;102.53;;;;;;;18.43;100.00;101231.66;6095256;23;20022;-81
2023/06/21 04:42:42;;;;;;;107.03;98.78;;;;;;;18.67;100.00;101232.25;6095135;23;20066;-81
2023/06/21 04:45:11;;;;;;;107.82;99.88;;;;;;;18.68;100.00;101229.34;6095301;23;20019;-81
2023/06/21 04:47:38;;;;;;;102.78;95.15;;;;;;;18.85;100.00;101229.34;6095177;23;20025;-83
2023/06/21 04:50:07;;;;;;;113.25;104.93;;;;;;;18.79;100.00;101218.75;6095801;23;20035;-85
2023/06/21 04:52:37;;;;;;;86.15;78.50;;;;;;;18.82;100.00;101226.31;6095002;23;20101;-81
2023/06/21 04:55:05;;;;;;;83.60;76.20;;;;;;;20.07;100.00;101232.59;6094485;23;20480;-78
2023/06/21 04:57:37;;;;;;;53.35;48.85;;;;;;;21.42;100.00;101227.75;6095290;23;20045;-81
2023/06/21 05:00:07;;;;;;;58.88;53.70;;;;;;;19.59;100.00;101231.56;6089889;23;20018;-81
2023/06/21 05:02:34;;;;;;;71.25;65.22;;;;;;;19.31;100.00;101231.81;6092928;23;20101;-81
2023/06/21 05:05:01;;;;;;;75.68;69.47;;;;;;;19.31;100.00;101245.28;6092617;23;20018;-81
2023/06/21 05:07:29;;;;;;;81.90;75.30;;;;;;;19.67;100.00;101238.44;6091986;23;20022;-81
2023/06/21 05:09:56;;;;;;;83.75;76.45;;;;;;;19.54;100.00;101242.28;6092180;23;20380;-82
2023/06/21 05:12:23;;;;;;;117.90;109.45;;;;;;;19.90;100.00;101235.41;6089168;23;20487;-81
2023/06/21 05:14:50;;;;;;;119.55;111.45;;;;;;;19.99;100.00;101243.84;6091828;23;20026;-85
2023/06/21 05:17:17;;;;;;;115.38;107.15;;;;;;;20.08;100.00;101238.81;6092414;23;20027;-84
2023/06/21 05:19:56;;;;;;;112.50;104.30;;;;;;;19.88;100.00;101240.25;6092731;23;20027;-84
2023/06/21 05:22:23;;;;;;;87.07;80.28;;;;;;;20.11;100.00;101247.19;6091331;23;20019;-84
2023/06/21 05:24:51;;;;;;;86.47;79.65;;;;;;;20.20;100.00;101244.03;6092024;23;20034;-84
2023/06/21 05:27:19;;;;;;;111.35;103.50;;;;;;;20.14;100.00;101233.19;6089800;23;20027;-84
2023/06/21 05:29:46;;;;;;;115.40;107.50;;;;;;;20.48;100.00;101226.69;6093667;23;20410;-84
2023/06/21 05:32:13;;;;;;;114.30;106.10;;;;;;;20.84;100.00;101235.84;6091409;23;20094;-84
2023/06/21 05:34:40;;;;;;;106.07;98.30;;;;;;;20.88;100.00;101236.97;6093220;23;20070;-85
2023/06/21 05:37:07;;;;;;;104.72;97.28;;;;;;;20.90;100.00;101225.91;6094562;23;20057;-85
2023/06/21 05:39:34;;;;;;;107.85;100.40;;;;;;;20.99;100.00;101233.22;6094882;23;20034;-84
2023/06/21 05:42:02;;;;;;;108.40;101.00;;;;;;;21.17;100.00;101236.56;6094867;23;20034;-84
2023/06/21 05:44:29;;;;;;;114.70;104.18;;;;;;;21.30;100.00;101237.94;6095040;23;20368;-85
2023/06/21 05:46:56;;;;;;;105.35;95.50;;;;;;;21.43;100.00;101240.19;6094918;23;20022;-84
2023/06/21 05:49:23;;;;;;;87.40;79.50;;;;;;;21.77;100.00;101224.31;6094953;23;20019;-84
2023/06/21 05:51:50;;;;;;;79.45;72.57;;;;;;;21.71;100.00;101225.38;6094804;23;20021;-84
2023/06/21 05:54:17;;;;;;;82.65;73.40;;;;;;;21.83;100.00;101227.84;6094505;23;20026;-84
2023/06/21 05:56:43;;;;;;;78.70;70.70;;;;;;;21.99;100.00;101239.47;6093664;23;20030;-81
2023/06/21 05:59:12;;;;;;;76.30;69.95;;;;;;;22.22;100.00;101235.47;6093794;23;20033;-81
2023/06/21 06:01:39;;;;;;;76.65;70.55;;;;;;;22.32;100.00;101230.84;6094034;23;20426;-81
2023/06/21 06:04:07;;;;;;;76.45;69.55;;;;;;;22.47;100.00;101219.19;6093355;23;20018;-81
2023/06/21 06:06:40;;;;;;;68.60;62.70;;;;;;;22.69;100.00;101226.19;6092753;23;20034;-81
2023/06/21 06:09:08;;;;;;;65.65;60.08;;;;;;;22.69;100.00;101226.19;6093825;23;20021;-81
2023/06/21 06:11:35;;;;;;;60.92;55.63;;;;;;;22.55;100.00;101224.06;6093251;23;20094;-81
2023/06/21 06:14:02;;;;;;;63.05;57.55;;;;;;;22.84;100.00;101223.44;6093608;23;20026;-81
2023/06/21 06:16:31;;;;;;;77.00;70.88;;;;;;;23.36;100.00;101219.47;6094056;23;20018;-81
2023/06/21 06:18:58;;;;;;;54.78;50.47;;;;;;;23.37;100.00;101214.84;6093691;23;20026;-82
2023/06/21 06:21:25;;;;;;;58.60;54.00;;;;;;;23.49;100.00;101215.31;6093661;23;20034;-81
2023/06/21 06:23:53;;;;;;;52.08;47.83;;;;;;;23.48;100.00;101219.94;6093859;23;20377;-82
2023/06/21 06:26:23;;;;;;;55.45;51.28;;;;;;;23.67;100.00;101217.38;6093302;23;20499;-81
2023/06/21 06:28:50;;;;;;;49.45;44.85;;;;;;;23.87;100.00;101212.91;6093687;23;20018;-81
2023/06/21 06:31:21;;;;;;;43.33;39.70;;;;;;;23.91;100.00;101201.22;6094481;23;20037;-85
2023/06/21 06:33:49;;;;;;;44.38;40.95;;;;;;;24.09;100.00;101198.91;6094190;23;20085;-84
2023/06/21 06:36:17;;;;;;;40.97;37.85;;;;;;;24.20;100.00;101187.66;6094330;23;20384;-85
2023/06/21 06:38:46;;;;;;;46.28;42.75;;;;;;;24.39;100.00;101192.38;6092603;23;20026;-84
2023/06/21 06:41:13;;;;;;;45.45;42.03;;;;;;;24.50;100.00;101195.81;6093011;23;20015;-84
2023/06/21 06:43:40;;;;;;;38.95;35.75;;;;;;;24.62;100.00;101188.09;6092308;23;20014;-84
2023/06/21 06:46:07;;;;;;;34.47;31.35;;;;;;;24.74;100.00;101193.91;6093283;23;20022;-84
2023/06/21 06:48:34;;;;;;;29.33;26.92;;;;;;;24.85;100.00;101194.63;6093155;23;20022;-84
2023/06/21 06:51:02;;;;;;;31.02;28.42;;;;;;;25.15;100.00;101192.66;6093830;23;20022;-84
2023/06/21 06:53:29;;;;;;;28.90;26.13;;;;;;;25.00;100.00;101193.63;6093785;23;20464;-84
2023/06/21 06:55:58;;;;;;;32.65;30.05;;;;;;;25.19;100.00;101188.25;6093463;23;20306;-84
2023/06/21 06:58:26;;;;;;;32.33;29.63;;;;;;;25.24;100.00;101190.91;6091549;23;20057;-82
2023/06/21 07:00:53;;;;;;;31.10;28.08;;;;;;;25.46;100.00;101190.31;6091678;23;20026;-81
2023/06/21 07:03:20;;;;;;;27.63;25.52;;;;;;;25.41;100.00;101190.38;6091906;23;20026;-81
2023/06/21 07:05:51;;;;;;;26.73;24.63;;;;;;;25.45;100.00;101196.84;6091860;23;20037;-81
2023/06/21 07:08:19;;;;;;;27.80;25.55;;;;;;;25.37;100.00;101190.16;6087198;23;20439;-81
2023/06/21 07:10:47;;;;;;;28.85;26.65;;;;;;;25.46;100.00;101177.50;6091454;23;20072;-81
2023/06/21 07:13:15;;;;;;;29.23;27.02;;;;;;;25.99;100.00;101187.28;6092615;23;20483;-85
2023/06/21 07:15:42;;;;;;;26.55;24.58;;;;;;;25.53;100.00;101180.66;6092448;23;20473;-81
2023/06/21 07:18:10;;;;;;;28.45;26.20;;;;;;;25.48;100.00;101185.38;6092049;23;20472;-81
2023/06/21 07:20:37;;;;;;;27.67;25.38;;;;;;;25.68;100.00;101182.34;6092171;23;20441;-81
2023/06/21 07:23:05;;;;;;;27.52;25.55;;;;;;;25.69;100.00;101194.00;6092147;23;20028;-84
2023/06/21 07:25:33;;;;;;;27.10;24.92;;;;;;;25.89;100.00;101179.31;6091737;23;20061;-86
2023/06/21 07:28:01;;;;;;;28.15;25.75;;;;;;;26.00;100.00;101187.00;6092587;23;20540;-81
2023/06/21 07:30:28;;;;;;;27.48;25.23;;;;;;;25.92;100.00;101195.03;6092395;23;20023;-85
2023/06/21 07:32:57;;;;;;;25.40;23.70;;;;;;;25.98;100.00;101177.53;6093637;23;20022;-81
2023/06/21 07:35:26;;;;;;;24.00;22.10;;;;;;;25.90;100.00;101189.09;6092575;23;20364;-81
2023/06/21 07:37:53;;;;;;;24.00;22.30;;;;;;;26.17;100.00;101178.28;6092013;23;20018;-85
2023/06/21 07:40:22;;;;;;;24.35;22.52;;;;;;;25.55;100.00;101185.81;6092546;23;20022;-85
2023/06/21 07:42:54;;;;;;;25.70;23.65;;;;;;;25.42;100.00;101187.38;6093550;23;20019;-85
2023/06/21 07:45:26;;;;;;;25.30;23.60;;;;;;;25.38;100.00;101193.66;6093558;23;20030;-85
2023/06/21 07:47:56;;;;;;;26.23;24.15;;;;;;;26.30;100.00;101181.34;6093657;23;20057;-85
2023/06/21 07:50:28;;;;;;;26.13;24.20;;;;;;;25.80;100.00;101185.41;6092875;23;20045;-85
2023/06/21 07:53:01;;;;;;;26.83;24.83;;;;;;;25.92;100.00;101176.00;6093916;23;20025;-85
2023/06/21 07:55:30;;;;;;;27.00;25.08;;;;;;;25.91;100.00;101182.56;6095935;23;20422;-85
2023/06/21 07:58:03;;;;;;;27.10;25.20;;;;;;;25.92;100.00;101190.41;6095178;23;20050;-85
2023/06/21 08:00:33;;;;;;;28.05;25.95;;;;;;;25.49;100.00;101190.50;6095255;23;20022;-85
2023/06/21 08:03:01;;;;;;;28.38;25.83;;;;;;;25.98;100.00;101189.22;6095517;23;20061;-86
2023/06/21 08:05:29;;;;;;;27.40;25.17;;;;;;;25.76;100.00;101180.88;6095961;23;20042;-86
2023/06/21 08:08:02;;;;;;;28.58;26.05;;;;;;;26.08;100.00;101181.97;6095455;23;20029;-86
2023/06/21 08:10:33;;;;;;;27.23;25.13;;;;;;;26.18;100.00;101179.09;6094984;23;20019;-85
2023/06/21 08:13:05;;;;;;;26.43;24.33;;;;;;;26.14;100.00;101191.66;6094401;23;20093;-82
2023/06/21 08:15:35;;;;;;;28.23;26.33;;;;;;;26.41;100.00;101182.75;6094411;23;20329;-81
2023/06/21 08:18:03;;;;;;;25.63;23.92;;;;;;;26.06;100.00;101173.31;6094380;23;20109;-81
2023/06/21 08:20:32;;;;;;;27.23;25.20;;;;;;;26.81;100.00;101183.06;6093362;23;20019;-81
2023/06/21 08:22:59;;;;;;;25.27;23.38;;;;;;;25.89;100.00;101179.31;6093447;23;20117;-81
2023/06/21 08:25:35;;;;;;;25.70;23.70;;;;;;;26.22;100.00;101197.25;6093643;23;20019;-81
2023/06/21 08:28:04;;;;;;;25.33;23.38;;;;;;;26.50;100.00;101183.69;6093732;23;20026;-82
2023/06/21 08:30:31;;;;;;;28.23;25.90;;;;;;;27.10;100.00;101191.72;6093688;23;20030;-81
2023/06/21 08:33:04;;;;;;;27.17;25.05;;;;;;;26.71;100.00;101192.28;6094263;23;20033;-81
2023/06/21 08:35:32;;;;;;;24.73;22.67;;;;;;;26.24;100.00;101192.31;6093982;23;20025;-80
2023/06/21 08:38:01;;;;;;;27.95;25.60;;;;;;;27.05;100.00;101196.47;6093569;23;20438;-82
2023/06/21 08:40:34;;;;;;;24.95;23.05;;;;;;;27.10;100.00;101186.28;6094319;23;20038;-81
2023/06/21 08:43:08;;;;;;;25.92;24.20;;;;;;;26.64;100.00;101186.44;6092719;23;20022;-81
2023/06/21 08:45:41;;;;;;;24.45;22.75;;;;;;;27.18;100.00;101177.41;6093539;23;20025;-80
2023/06/21 08:48:07;;;;;;;;;;;;;;;26.67;100.00;101191.28;6093869;23;20018;-82
2023/06/21 08:50:39;;;;;;;26.00;24.15;;;;;;;26.50;100.00;101175.50;6093539;23;19944;-81
2023/06/21 08:53:08;;;;;;;24.30;22.55;;;;;;;26.77;100.00;101171.19;6093909;23;20109;-82
2023/06/21 08:55:42;;;;;;;25.77;23.88;;;;;;;26.60;100.00;101171.81;6093460;23;20389;-82
2023/06/21 08:58:17;;;;;;;28.05;26.05;;;;;;;26.38;100.00;101175.97;6094401;23;20014;-85
2023/06/21 09:00:54;;;;;;;26.75;24.95;;;;;;;26.80;100.00;101178.75;6094200;23;20022;-86
2023/06/21 09:03:25;;;;;;;25.50;23.50;;;;;;;27.21;100.00;101176.00;6094350;23;20023;-85
2023/06/21 09:05:58;;;;;;;24.00;21.95;;;;;;;27.59;100.00;101172.91;6095291;23;20460;-84
2023/06/21 09:08:26;;;;;;;24.60;22.80;;;;;;;27.96;100.00;101155.41;6094911;23;20019;-81
2023/06/21 09:10:54;;;;;;;23.00;21.30;;;;;;;28.38;100.00;101158.63;6094881;23;20496;-85
2023/06/21 09:13:24;;;;;;;24.65;23.02;;;;;;;28.01;100.00;101152.50;6094092;23;20074;-80
2023/06/21 09:15:52;;;;;;;24.70;22.67;;;;;;;28.23;100.00;101151.69;6092498;23;20026;-82
2023/06/21 09:18:19;;;;;;;23.90;22.20;;;;;;;27.31;100.00;101155.84;6092922;23;20401;-82
2023/06/21 09:20:49;;;;;;;24.23;22.70;;;;;;;26.91;100.00;101164.59;6092633;23;20022;-82
2023/06/21 09:23:17;;;;;;;22.00;20.35;;;;;;;28.64;100.00;101157.94;6092350;23;20029;-80
2023/06/21 09:25:45;;;;;;;22.95;21.25;;;;;;;28.92;100.00;101150.28;6093614;23;20045;-85
2023/06/21 09:28:12;;;;;;;23.30;21.42;;;;;;;29.30;100.00;101155.97;6095895;23;20469;-84
2023/06/21 09:30:40;;;;;;;23.10;21.40;;;;;;;28.82;100.00;101153.34;6095556;23;20026;-85
2023/06/21 09:33:08;;;;;;;25.73;23.73;;;;;;;28.52;100.00;101153.88;6094500;23;20026;-85
2023/06/21 09:35:36;;;;;;;24.83;22.95;;;;;;;28.30;100.00;101146.56;6093645;23;20014;-86
2023/06/21 09:38:22;;;;;;;23.63;21.67;;;;;;;28.47;100.00;101145.84;6094186;23;20030;-85
2023/06/21 09:40:49;;;;;;;26.58;24.42;;;;;;;29.14;100.00;101138.44;6093467;23;20550;-84
2023/06/21 09:43:17;;;;;;;29.15;27.10;;;;;;;29.11;100.00;101137.16;6093265;23;20018;-82
2023/06/21 09:45:59;;;;;;;24.73;22.92;;;;;;;28.95;100.00;101144.97;6091637;23;20022;-80
2023/06/21 09:48:26;;;;;;;25.92;24.00;;;;;;;28.33;100.00;101134.19;6092215;23;20026;-82
2023/06/21 09:50:55;;;;;;;26.10;24.20;;;;;;;27.05;100.00;101145.50;6093553;23;20022;-82
2023/06/21 09:53:23;;;;;;;26.92;24.73;;;;;;;28.43;100.00;101138.59;6093839;23;20022;-81
2023/06/21 09:55:50;;;;;;;27.35;25.27;;;;;;;29.41;100.00;101138.13;6094104;23;20074;-82
2023/06/21 09:58:17;;;;;;;27.38;25.10;;;;;;;28.77;100.00;101129.69;6094023;23;20026;-82
2023/06/21 10:00:49;;;;;;;26.23;24.20;;;;;;;29.13;100.00;101129.44;6093728;23;20053;-85
2023/06/21 10:03:16;;;;;;;24.30;22.30;;;;;;;27.76;100.00;101137.56;6095472;23;20029;-82
2023/06/21 10:05:55;;;;;;;24.38;22.45;;;;;;;29.16;100.00;101119.78;6095015;23;20022;-82
2023/06/21 10:08:28;;;;;;;25.67;23.58;;;;;;;30.04;100.00;101130.28;6095119;23;20022;-85
2023/06/21 10:10:56;;;;;;;25.35;23.45;;;;;;;29.70;100.00;101139.38;6094735;23;20028;-86
2023/06/21 10:13:27;;;;;;;24.55;22.45;;;;;;;29.72;100.00;101139.09;6094877;23;20019;-85
2023/06/21 10:15:59;;;;;;;23.17;21.38;;;;;;;28.03;100.00;101142.09;6093717;23;20029;-82
2023/06/21 10:18:26;;;;;;;23.33;21.45;;;;;;;29.14;100.00;101142.00;6093475;23;20027;-82
2023/06/21 10:20:56;;;;;;;23.13;21.27;;;;;;;28.54;100.00;101140.72;6094369;23;20022;-86
2023/06/21 10:23:28;;;;;;;24.40;22.60;;;;;;;28.12;100.00;101141.34;6094210;23;20109;-83
2023/06/21 10:25:59;;;;;;;26.52;24.30;;;;;;;28.73;100.00;101126.78;6093726;23;20077;-82
2023/06/21 10:28:28;;;;;;;24.60;22.50;;;;;;;28.80;100.00;101120.84;6094607;23;20484;-84
2023/06/21 10:30:57;;;;;;;24.10;22.10;;;;;;;28.38;100.00;101120.38;6093880;23;20023;-82
2023/06/21 10:33:26;;;;;;;25.65;23.42;;;;;;;29.13;100.00;101118.47;6093126;23;20077;-82
2023/06/21 10:35:57;;;;;;;25.83;23.73;;;;;;;29.52;100.00;101126.84;6093387;23;20029;-82
2023/06/21 10:38:32;;;;;;;27.00;25.10;;;;;;;29.33;100.00;101119.78;6093302;23;20025;-82
2023/06/21 10:41:00;;;;;;;24.58;22.75;;;;;;;29.73;100.00;101118.78;6093573;23;20022;-83
2023/06/21 10:43:28;;;;;;;28.25;26.25;;;;;;;29.76;100.00;101107.19;6093667;23;20018;-85
2023/06/21 10:45:57;;;;;;;26.60;24.77;;;;;;;30.34;100.00;101117.44;6095078;23;20093;-85
2023/06/21 10:48:25;;;;;;;27.30;25.60;;;;;;;30.26;100.00;101122.97;6094968;23;20085;-84
2023/06/21 10:50:53;;;;;;;26.50;24.80;;;;;;;30.30;100.00;101111.03;6093111;23;20014;-82
2023/06/21 10:53:21;;;;;;;25.27;23.58;;;;;;;31.14;100.00;101116.63;6093630;23;20435;-82
2023/06/21 10:55:50;;;;;;;28.55;26.65;;;;;;;30.07;100.00;101106.91;6093815;23;20019;-82
2023/06/21 10:58:20;;;;;;;27.13;25.33;;;;;;;30.18;100.00;101102.69;6093603;23;20025;-83
2023/06/21 11:00:49;;;;;;;25.00;23.40;;;;;;;30.26;100.00;101107.34;6093377;23;20020;-82
2023/06/21 11:03:24;;;;;;;24.52;22.80;;;;;;;30.78;100.00;101101.59;6093948;23;20046;-82
2023/06/21 11:05:54;;;;;;;25.52;23.60;;;;;;;31.42;100.00;101119.63;6093939;23;20519;-82
2023/06/21 11:08:30;;;;;;;25.70;23.70;;;;;;;30.24;100.00;101109.59;6093361;23;20018;-82